createdAt,value
2022-10-11T00:00:04.467Z,10.80
2022-10-11T00:00:13.889Z,10.80
2022-10-11T00:00:23.313Z,10.80
2022-10-11T00:00:32.733Z,10.80
2022-10-11T00:00:42.149Z,10.90
2022-10-11T00:00:51.674Z,10.90
2022-10-11T00:01:01.166Z,10.90
2022-10-11T00:01:10.534Z,11.00
2022-10-11T00:01:19.972Z,11.00
2022-10-11T00:01:29.366Z,11.00
2022-10-11T00:01:38.774Z,11.00
2022-10-11T00:01:48.274Z,11.10
2022-10-11T00:01:57.644Z,11.10
2022-10-11T00:02:07.071Z,11.10
2022-10-11T00:02:16.492Z,11.10
2022-10-11T00:02:35.333Z,11.10
2022-10-11T00:02:44.757Z,11.20
2022-10-11T00:02:54.173Z,11.20
2022-10-11T00:03:03.615Z,11.20
2022-10-11T00:03:13.050Z,11.20
2022-10-11T00:03:22.548Z,11.20
2022-10-11T00:03:31.979Z,11.20
2022-10-11T00:03:41.433Z,11.30
2022-10-11T00:03:50.847Z,11.20
2022-10-11T00:04:00.279Z,11.30
2022-10-11T00:04:09.677Z,11.20
2022-10-11T00:04:19.132Z,11.30
2022-10-11T00:04:28.599Z,11.20
2022-10-11T00:04:38.011Z,11.20
2022-10-11T00:04:47.424Z,11.20
2022-10-11T00:04:56.890Z,11.20
2022-10-11T00:05:06.345Z,11.20
2022-10-11T00:05:25.190Z,11.20
2022-10-11T00:05:34.614Z,11.20
2022-10-11T00:05:44.044Z,11.20
2022-10-11T00:05:53.480Z,11.20
2022-10-11T00:06:03.382Z,11.20
2022-10-11T00:06:12.308Z,11.10
2022-10-11T00:06:21.721Z,11.10
2022-10-11T00:06:31.140Z,11.10
2022-10-11T00:06:40.558Z,11.10
2022-10-11T00:06:49.977Z,11.10
2022-10-11T00:06:59.398Z,11.10
2022-10-11T00:07:08.842Z,11.10
2022-10-11T00:07:18.283Z,11.10
2022-10-11T00:07:27.708Z,11.00
2022-10-11T00:07:37.166Z,11.00
2022-10-11T00:07:46.565Z,11.00
2022-10-11T00:08:05.425Z,11.00
2022-10-11T00:08:14.820Z,11.00
2022-10-11T00:08:24.231Z,10.90
2022-10-11T00:08:33.663Z,10.90
2022-10-11T00:08:43.093Z,10.90
2022-10-11T00:08:52.515Z,10.90
2022-10-11T00:09:01.934Z,10.90
2022-10-11T00:09:11.356Z,10.90
2022-10-11T00:09:20.793Z,10.90
2022-10-11T00:09:30.210Z,10.80
2022-10-11T00:09:39.628Z,10.80
2022-10-11T00:09:49.039Z,10.80
2022-10-11T00:09:58.583Z,10.80
2022-10-11T00:10:08.083Z,10.80
2022-10-11T00:10:17.511Z,10.80
2022-10-11T00:10:26.938Z,10.80
2022-10-11T00:10:36.373Z,10.80
2022-10-11T00:10:55.328Z,10.80
2022-10-11T00:11:04.750Z,10.80
2022-10-11T00:11:14.153Z,10.80
2022-10-11T00:11:23.570Z,10.80
2022-10-11T00:11:33.052Z,10.80
2022-10-11T00:11:42.547Z,10.80
2022-10-11T00:11:51.981Z,10.80
2022-10-11T00:12:01.460Z,10.80
2022-10-11T00:12:10.890Z,10.80
2022-10-11T00:12:20.338Z,10.80
2022-10-11T00:12:29.758Z,10.80
2022-10-11T00:12:39.178Z,10.90
2022-10-11T00:12:48.571Z,10.90
2022-10-11T00:12:57.994Z,10.90
2022-10-11T00:13:07.444Z,10.90
2022-10-11T00:13:16.876Z,10.90
2022-10-11T00:13:26.313Z,11.00
2022-10-11T00:13:45.161Z,11.00
2022-10-11T00:13:54.640Z,11.00
2022-10-11T00:14:04.071Z,11.00
2022-10-11T00:14:13.477Z,11.00
2022-10-11T00:14:22.901Z,11.00
2022-10-11T00:14:32.329Z,11.00
2022-10-11T00:14:41.768Z,10.90
2022-10-11T00:14:51.177Z,11.00
2022-10-11T00:15:00.585Z,11.00
2022-10-11T00:15:10.019Z,11.00
2022-10-11T00:15:19.458Z,11.00
2022-10-11T00:15:28.868Z,11.00
2022-10-11T00:15:38.316Z,11.00
2022-10-11T00:15:47.747Z,11.00
2022-10-11T00:15:57.168Z,11.00
2022-10-11T00:16:06.916Z,11.00
2022-10-11T00:16:25.460Z,11.00
2022-10-11T00:16:34.924Z,11.10
2022-10-11T00:16:44.408Z,11.00
2022-10-11T00:16:53.767Z,11.00
2022-10-11T00:17:03.201Z,10.90
2022-10-11T00:17:12.686Z,10.90
2022-10-11T00:17:22.148Z,10.90
2022-10-11T00:17:31.588Z,10.90
2022-10-11T00:17:41.029Z,10.90
2022-10-11T00:17:50.547Z,10.90
2022-10-11T00:18:04.532Z,10.90
2022-10-11T00:18:09.381Z,10.90
2022-10-11T00:18:18.855Z,10.90
2022-10-11T00:18:28.288Z,10.80
2022-10-11T00:18:37.733Z,10.80
2022-10-11T00:18:47.143Z,10.80
2022-10-11T00:18:56.537Z,10.80
2022-10-11T00:19:15.380Z,10.80
2022-10-11T00:19:24.796Z,10.80
2022-10-11T00:19:34.282Z,10.80
2022-10-11T00:19:43.857Z,10.80
2022-10-11T00:19:53.280Z,10.70
2022-10-11T00:20:02.690Z,10.80
2022-10-11T00:20:12.113Z,10.70
2022-10-11T00:20:21.515Z,10.70
2022-10-11T00:20:30.935Z,10.70
2022-10-11T00:20:40.369Z,10.70
2022-10-11T00:20:49.806Z,10.70
2022-10-11T00:20:59.294Z,10.60
2022-10-11T00:21:08.756Z,10.70
2022-10-11T00:21:18.168Z,10.70
2022-10-11T00:21:27.584Z,10.70
2022-10-11T00:21:36.988Z,10.60
2022-10-11T00:21:46.404Z,10.60
2022-10-11T00:22:05.242Z,10.60
2022-10-11T00:22:14.669Z,10.60
2022-10-11T00:22:24.084Z,10.60
2022-10-11T00:22:33.588Z,10.60
2022-10-11T00:22:43.016Z,10.60
2022-10-11T00:22:52.442Z,10.60
2022-10-11T00:23:01.902Z,10.60
2022-10-11T00:23:11.358Z,10.60
2022-10-11T00:23:20.777Z,10.60
2022-10-11T00:23:30.185Z,10.60
2022-10-11T00:23:39.803Z,10.50
2022-10-11T00:23:49.234Z,10.50
2022-10-11T00:23:58.674Z,10.50
2022-10-11T00:24:08.100Z,10.50
2022-10-11T00:24:17.531Z,10.50
2022-10-11T00:24:26.954Z,10.50
2022-10-11T00:24:36.414Z,10.50
2022-10-11T00:24:55.270Z,10.50
2022-10-11T00:25:04.692Z,10.50
2022-10-11T00:25:14.100Z,10.50
2022-10-11T00:25:23.531Z,10.50
2022-10-11T00:25:32.956Z,10.50
2022-10-11T00:25:42.401Z,10.50
2022-10-11T00:25:51.902Z,10.40
2022-10-11T00:26:01.855Z,10.40
2022-10-11T00:26:10.778Z,10.40
2022-10-11T00:26:20.242Z,10.40
2022-10-11T00:26:29.671Z,10.40
2022-10-11T00:26:41.163Z,10.40
2022-10-11T00:26:48.507Z,10.40
2022-10-11T00:26:57.928Z,10.40
2022-10-11T00:27:07.345Z,10.40
2022-10-11T00:27:16.776Z,10.40
2022-10-11T00:27:26.214Z,10.40
2022-10-11T00:27:45.153Z,10.40
2022-10-11T00:27:54.612Z,10.40
2022-10-11T00:28:04.077Z,10.40
2022-10-11T00:28:13.582Z,10.40
2022-10-11T00:28:22.984Z,10.40
2022-10-11T00:28:32.426Z,10.40
2022-10-11T00:28:41.893Z,10.40
2022-10-11T00:28:51.292Z,10.40
2022-10-11T00:29:00.614Z,10.30
2022-10-11T00:29:10.037Z,10.30
2022-10-11T00:29:19.481Z,10.30
2022-10-11T00:29:28.904Z,10.30
2022-10-11T00:29:38.358Z,10.30
2022-10-11T00:29:47.811Z,10.30
2022-10-11T00:29:57.249Z,10.30
2022-10-11T00:30:06.683Z,10.30
2022-10-11T00:30:16.105Z,10.30
2022-10-11T00:30:34.927Z,10.30
2022-10-11T00:30:44.357Z,10.30
2022-10-11T00:30:53.871Z,10.30
2022-10-11T00:31:03.678Z,10.30
2022-10-11T00:31:12.699Z,10.30
2022-10-11T00:31:22.119Z,10.30
2022-10-11T00:31:35.540Z,10.30
2022-10-11T00:31:41.107Z,10.30
2022-10-11T00:31:50.521Z,10.30
2022-10-11T00:31:59.990Z,10.30
2022-10-11T00:32:09.414Z,10.30
2022-10-11T00:32:18.841Z,10.30
2022-10-11T00:32:28.300Z,10.30
2022-10-11T00:32:37.707Z,10.30
2022-10-11T00:32:47.134Z,10.20
2022-10-11T00:32:56.552Z,10.20
2022-10-11T00:33:15.407Z,10.20
2022-10-11T00:33:24.828Z,10.20
2022-10-11T00:33:34.252Z,10.20
2022-10-11T00:33:43.675Z,10.20
2022-10-11T00:33:53.072Z,10.20
2022-10-11T00:34:02.483Z,10.20
2022-10-11T00:34:11.931Z,10.20
2022-10-11T00:34:21.361Z,10.20
2022-10-11T00:34:30.780Z,10.20
2022-10-11T00:34:40.263Z,10.20
2022-10-11T00:34:49.686Z,10.20
2022-10-11T00:34:59.119Z,10.20
2022-10-11T00:35:08.543Z,10.20
2022-10-11T00:35:17.947Z,10.20
2022-10-11T00:35:27.442Z,10.20
2022-10-11T00:35:36.850Z,10.20
2022-10-11T00:35:46.274Z,10.20
2022-10-11T00:36:05.413Z,10.20
2022-10-11T00:36:14.545Z,10.20
2022-10-11T00:36:23.962Z,10.20
2022-10-11T00:36:33.390Z,10.30
2022-10-11T00:36:42.805Z,10.30
2022-10-11T00:36:52.240Z,10.30
2022-10-11T00:37:01.662Z,10.30
2022-10-11T00:37:11.068Z,10.40
2022-10-11T00:37:20.473Z,10.40
2022-10-11T00:37:29.866Z,10.40
2022-10-11T00:37:39.337Z,10.40
2022-10-11T00:37:48.736Z,10.40
2022-10-11T00:37:58.144Z,10.50
2022-10-11T00:38:07.553Z,10.50
2022-10-11T00:38:16.970Z,10.50
2022-10-11T00:38:26.366Z,10.60
2022-10-11T00:38:45.208Z,10.60
2022-10-11T00:38:54.634Z,10.70
2022-10-11T00:39:04.057Z,10.70
2022-10-11T00:39:14.543Z,10.70
2022-10-11T00:39:22.874Z,10.70
2022-10-11T00:39:32.278Z,10.70
2022-10-11T00:39:41.734Z,10.80
2022-10-11T00:39:51.132Z,10.80
2022-10-11T00:40:00.546Z,10.80
2022-10-11T00:40:09.961Z,10.80
2022-10-11T00:40:19.395Z,10.80
2022-10-11T00:40:28.809Z,10.90
2022-10-11T00:40:38.242Z,10.90
2022-10-11T00:40:47.639Z,10.90
2022-10-11T00:40:57.053Z,10.90
2022-10-11T00:41:06.504Z,11.00
2022-10-11T00:41:25.328Z,11.00
2022-10-11T00:41:34.776Z,11.00
2022-10-11T00:41:44.192Z,11.10
2022-10-11T00:41:53.610Z,11.10
2022-10-11T00:42:03.027Z,11.10
2022-10-11T00:42:12.432Z,11.10
2022-10-11T00:42:21.838Z,11.10
2022-10-11T00:42:31.237Z,11.20
2022-10-11T00:42:40.691Z,11.20
2022-10-11T00:42:50.117Z,11.20
2022-10-11T00:42:59.523Z,11.20
2022-10-11T00:43:08.943Z,11.30
2022-10-11T00:43:18.368Z,11.30
2022-10-11T00:43:27.758Z,11.30
2022-10-11T00:43:37.151Z,11.30
2022-10-11T00:43:46.572Z,11.30
2022-10-11T00:44:05.441Z,11.40
2022-10-11T00:44:14.843Z,11.40
2022-10-11T00:44:24.256Z,11.40
2022-10-11T00:44:33.648Z,11.40
2022-10-11T00:44:44.628Z,11.40
2022-10-11T00:44:54.041Z,11.40
2022-10-11T00:45:03.506Z,11.40
2022-10-11T00:45:12.912Z,11.50
2022-10-11T00:45:22.319Z,11.50
2022-10-11T00:45:31.770Z,11.50
2022-10-11T00:45:41.125Z,11.50
2022-10-11T00:45:50.590Z,11.50
2022-10-11T00:45:59.996Z,11.50
2022-10-11T00:46:09.617Z,11.50
2022-10-11T00:46:18.924Z,11.50
2022-10-11T00:46:28.329Z,11.60
2022-10-11T00:46:37.736Z,11.60
2022-10-11T00:46:47.135Z,11.60
2022-10-11T00:46:56.550Z,11.60
2022-10-11T00:47:15.408Z,11.60
2022-10-11T00:47:24.818Z,11.60
2022-10-11T00:47:34.312Z,11.60
2022-10-11T00:47:43.727Z,11.60
2022-10-11T00:47:53.153Z,11.60
2022-10-11T00:48:02.610Z,11.60
2022-10-11T00:48:12.031Z,11.60
2022-10-11T00:48:21.465Z,11.70
2022-10-11T00:48:30.866Z,11.70
2022-10-11T00:48:40.281Z,11.70
2022-10-11T00:48:49.693Z,11.70
2022-10-11T00:48:59.164Z,11.70
2022-10-11T00:49:08.586Z,11.70
2022-10-11T00:49:18.009Z,11.70
2022-10-11T00:49:27.444Z,11.70
2022-10-11T00:49:36.865Z,11.70
2022-10-11T00:49:46.297Z,11.70
2022-10-11T00:50:05.115Z,11.80
2022-10-11T00:50:14.537Z,11.80
2022-10-11T00:50:23.933Z,11.80
2022-10-11T00:50:33.344Z,11.80
2022-10-11T00:50:42.795Z,11.80
2022-10-11T00:50:52.251Z,11.80
2022-10-11T00:51:02.086Z,11.80
2022-10-11T00:51:11.118Z,11.80
2022-10-11T00:51:20.550Z,11.80
2022-10-11T00:51:29.941Z,11.80
2022-10-11T00:51:39.345Z,11.80
2022-10-11T00:51:48.754Z,11.90
2022-10-11T00:51:58.213Z,11.80
2022-10-11T00:52:07.694Z,11.90
2022-10-11T00:52:17.135Z,11.90
2022-10-11T00:52:26.558Z,11.90
2022-10-11T00:52:45.444Z,11.90
2022-10-11T00:52:54.851Z,11.90
2022-10-11T00:53:04.264Z,11.90
2022-10-11T00:53:13.671Z,11.90
2022-10-11T00:53:23.065Z,11.90
2022-10-11T00:53:32.485Z,12.00
2022-10-11T00:53:41.878Z,11.90
2022-10-11T00:53:51.346Z,12.00
2022-10-11T00:54:00.765Z,12.00
2022-10-11T00:54:10.207Z,12.00
2022-10-11T00:54:19.652Z,12.00
2022-10-11T00:54:29.054Z,12.00
2022-10-11T00:54:38.448Z,12.00
2022-10-11T00:54:47.864Z,12.00
2022-10-11T00:54:57.278Z,12.00
2022-10-11T00:55:06.707Z,12.00
2022-10-11T00:55:16.125Z,11.90
2022-10-11T00:55:34.991Z,12.00
2022-10-11T00:55:44.389Z,12.00
2022-10-11T00:55:53.792Z,12.00
2022-10-11T00:56:03.671Z,12.00
2022-10-11T00:56:12.620Z,12.00
2022-10-11T00:56:22.036Z,12.00
2022-10-11T00:56:31.474Z,12.00
2022-10-11T00:56:40.860Z,12.00
2022-10-11T00:56:50.301Z,12.00
2022-10-11T00:56:59.716Z,12.00
2022-10-11T00:57:09.124Z,12.00
2022-10-11T00:57:18.563Z,12.00
2022-10-11T00:57:28.003Z,12.10
2022-10-11T00:57:37.409Z,12.00
2022-10-11T00:57:46.825Z,12.10
2022-10-11T00:57:56.249Z,12.10
2022-10-11T00:58:15.062Z,12.10
2022-10-11T00:58:24.500Z,12.00
2022-10-11T00:58:33.882Z,12.10
2022-10-11T00:58:43.294Z,12.10
2022-10-11T00:58:52.707Z,12.10
2022-10-11T00:59:02.096Z,12.10
2022-10-11T00:59:11.512Z,12.10
2022-10-11T00:59:20.932Z,12.10
2022-10-11T00:59:30.360Z,12.10
2022-10-11T00:59:39.780Z,12.10
2022-10-11T00:59:49.202Z,12.10
2022-10-11T00:59:58.626Z,12.10
2022-10-11T01:00:08.044Z,12.10
2022-10-11T01:00:17.459Z,12.10
2022-10-11T01:00:26.873Z,12.10
2022-10-11T01:00:36.328Z,12.10
2022-10-11T01:00:55.274Z,12.10
2022-10-11T01:01:04.680Z,12.10
2022-10-11T01:01:14.113Z,12.10
2022-10-11T01:01:23.465Z,12.10
2022-10-11T01:01:32.915Z,12.10
2022-10-11T01:01:42.396Z,12.10
2022-10-11T01:01:51.865Z,12.10
2022-10-11T01:02:01.236Z,12.10
2022-10-11T01:02:10.630Z,12.10
2022-10-11T01:02:20.115Z,12.10
2022-10-11T01:02:29.529Z,12.10
2022-10-11T01:02:38.955Z,12.10
2022-10-11T01:02:48.379Z,12.10
2022-10-11T01:02:57.767Z,12.10
2022-10-11T01:03:07.180Z,12.10
2022-10-11T01:03:16.609Z,12.10
2022-10-11T01:03:35.440Z,12.10
2022-10-11T01:03:44.871Z,12.10
2022-10-11T01:03:54.269Z,12.10
2022-10-11T01:04:03.680Z,12.10
2022-10-11T01:04:13.101Z,12.10
2022-10-11T01:04:22.578Z,12.10
2022-10-11T01:04:31.993Z,12.10
2022-10-11T01:04:41.422Z,12.10
2022-10-11T01:05:05.654Z,12.10
2022-10-11T01:05:25.287Z,12.10
2022-10-11T01:05:28.006Z,12.10
2022-10-11T01:05:29.159Z,12.10
2022-10-11T01:05:30.166Z,12.10
2022-10-11T01:05:37.958Z,12.10
2022-10-11T01:05:47.430Z,12.10
2022-10-11T01:05:56.835Z,12.10
2022-10-11T01:06:06.723Z,12.10
2022-10-11T01:06:18.680Z,12.10
2022-10-11T01:06:28.076Z,12.10
2022-10-11T01:06:37.508Z,12.10
2022-10-11T01:06:46.907Z,12.10
2022-10-11T01:06:56.396Z,12.10
2022-10-11T01:07:15.211Z,12.10
2022-10-11T01:07:24.639Z,12.10
2022-10-11T01:07:34.092Z,12.10
2022-10-11T01:07:43.498Z,12.10
2022-10-11T01:07:52.925Z,12.10
2022-10-11T01:08:02.327Z,12.10
2022-10-11T01:08:11.738Z,12.10
2022-10-11T01:08:21.158Z,12.10
2022-10-11T01:08:30.544Z,12.10
2022-10-11T01:08:39.965Z,12.10
2022-10-11T01:08:49.377Z,12.10
2022-10-11T01:08:58.775Z,12.10
2022-10-11T01:09:08.178Z,12.10
2022-10-11T01:09:17.609Z,12.10
2022-10-11T01:09:27.080Z,12.10
2022-10-11T01:09:36.512Z,12.10
2022-10-11T01:09:55.383Z,12.10
2022-10-11T01:10:04.814Z,12.10
2022-10-11T01:10:14.247Z,12.10
2022-10-11T01:10:23.647Z,12.10
2022-10-11T01:10:33.106Z,12.10
2022-10-11T01:10:42.513Z,12.10
2022-10-11T01:10:51.949Z,12.10
2022-10-11T01:11:01.405Z,12.10
2022-10-11T01:11:10.822Z,12.10
2022-10-11T01:11:20.262Z,12.10
2022-10-11T01:11:29.668Z,12.10
2022-10-11T01:11:39.080Z,12.00
2022-10-11T01:11:48.467Z,12.10
2022-10-11T01:11:57.922Z,12.00
2022-10-11T01:12:07.344Z,12.10
2022-10-11T01:12:16.736Z,12.10
2022-10-11T01:12:26.148Z,12.10
2022-10-11T01:12:45.072Z,12.00
2022-10-11T01:12:54.493Z,12.10
2022-10-11T01:13:03.909Z,12.10
2022-10-11T01:13:13.347Z,12.00
2022-10-11T01:13:22.796Z,12.10
2022-10-11T01:13:32.221Z,12.00
2022-10-11T01:13:41.607Z,12.10
2022-10-11T01:13:51.018Z,12.10
2022-10-11T01:14:00.434Z,12.10
2022-10-11T01:14:09.859Z,12.10
2022-10-11T01:14:19.288Z,12.10
2022-10-11T01:14:28.703Z,12.10
2022-10-11T01:14:38.110Z,12.10
2022-10-11T01:14:47.526Z,12.10
2022-10-11T01:14:56.981Z,12.10
2022-10-11T01:15:06.385Z,12.00
2022-10-11T01:15:25.222Z,12.10
2022-10-11T01:15:34.755Z,12.00
2022-10-11T01:15:44.164Z,12.10
2022-10-11T01:15:53.577Z,12.10
2022-10-11T01:16:03.445Z,12.10
2022-10-11T01:16:12.386Z,12.10
2022-10-11T01:16:21.794Z,12.10
2022-10-11T01:16:31.172Z,12.10
2022-10-11T01:16:40.578Z,12.10
2022-10-11T01:16:49.983Z,12.10
2022-10-11T01:16:59.392Z,12.10
2022-10-11T01:17:08.790Z,12.10
2022-10-11T01:17:18.212Z,12.10
2022-10-11T01:17:27.612Z,12.00
2022-10-11T01:17:37.036Z,12.10
2022-10-11T01:17:46.454Z,12.10
2022-10-11T01:18:05.294Z,12.10
2022-10-11T01:18:14.722Z,12.10
2022-10-11T01:18:24.138Z,12.10
2022-10-11T01:18:33.618Z,12.10
2022-10-11T01:18:43.028Z,12.00
2022-10-11T01:18:52.438Z,12.10
2022-10-11T01:19:01.874Z,12.10
2022-10-11T01:19:11.334Z,12.10
2022-10-11T01:19:20.793Z,12.10
2022-10-11T01:19:30.211Z,12.00
2022-10-11T01:19:39.646Z,12.00
2022-10-11T01:19:49.043Z,12.00
2022-10-11T01:19:58.500Z,12.00
2022-10-11T01:20:07.899Z,12.00
2022-10-11T01:20:17.278Z,12.10
2022-10-11T01:20:26.712Z,12.10
2022-10-11T01:20:36.171Z,12.10
2022-10-11T01:20:55.044Z,12.10
2022-10-11T01:21:04.452Z,12.00
2022-10-11T01:21:13.871Z,12.10
2022-10-11T01:21:23.266Z,12.10
2022-10-11T01:21:32.667Z,12.00
2022-10-11T01:21:42.138Z,12.10
2022-10-11T01:21:51.638Z,12.10
2022-10-11T01:22:01.049Z,12.10
2022-10-11T01:22:10.470Z,12.10
2022-10-11T01:22:19.866Z,12.00
2022-10-11T01:22:29.287Z,12.10
2022-10-11T01:22:38.689Z,12.10
2022-10-11T01:22:48.112Z,12.10
2022-10-11T01:22:57.536Z,12.10
2022-10-11T01:23:06.949Z,12.10
2022-10-11T01:23:16.367Z,12.00
2022-10-11T01:23:35.578Z,12.10
2022-10-11T01:23:45.011Z,12.10
2022-10-11T01:23:54.459Z,12.00
2022-10-11T01:24:08.351Z,12.00
2022-10-11T01:24:13.372Z,12.00
2022-10-11T01:24:22.948Z,12.00
2022-10-11T01:24:32.537Z,12.00
2022-10-11T01:24:41.946Z,12.00
2022-10-11T01:24:51.385Z,12.00
2022-10-11T01:25:00.853Z,12.00
2022-10-11T01:25:10.324Z,12.00
2022-10-11T01:25:19.764Z,12.00
2022-10-11T01:25:29.245Z,11.90
2022-10-11T01:25:38.685Z,11.90
2022-10-11T01:25:48.100Z,11.90
2022-10-11T01:25:57.531Z,11.90
2022-10-11T01:26:07.399Z,11.80
2022-10-11T01:26:16.384Z,11.80
2022-10-11T01:26:35.245Z,11.80
2022-10-11T01:26:44.689Z,11.80
2022-10-11T01:26:54.098Z,11.80
2022-10-11T01:27:03.511Z,11.70
2022-10-11T01:27:13.116Z,11.70
2022-10-11T01:27:22.542Z,11.70
2022-10-11T01:27:32.009Z,11.70
2022-10-11T01:27:41.464Z,11.60
2022-10-11T01:27:50.880Z,11.60
2022-10-11T01:28:00.291Z,11.60
2022-10-11T01:28:09.805Z,11.60
2022-10-11T01:28:19.187Z,11.50
2022-10-11T01:28:28.643Z,11.50
2022-10-11T01:28:38.108Z,11.50
2022-10-11T01:28:47.588Z,11.50
2022-10-11T01:28:56.988Z,11.40
2022-10-11T01:29:06.372Z,11.40
2022-10-11T01:29:25.203Z,11.40
2022-10-11T01:29:34.653Z,11.30
2022-10-11T01:29:44.072Z,11.30
2022-10-11T01:29:53.502Z,11.30
2022-10-11T01:30:02.963Z,11.30
2022-10-11T01:30:12.382Z,11.30
2022-10-11T01:30:21.805Z,11.20
2022-10-11T01:30:31.228Z,11.20
2022-10-11T01:30:40.693Z,11.20
2022-10-11T01:30:50.130Z,11.20
2022-10-11T01:30:59.662Z,11.10
2022-10-11T01:31:09.100Z,11.20
2022-10-11T01:31:18.546Z,11.10
2022-10-11T01:31:27.962Z,11.10
2022-10-11T01:31:37.381Z,11.10
2022-10-11T01:31:46.806Z,11.10
2022-10-11T01:31:56.215Z,11.00
2022-10-11T01:32:15.072Z,11.00
2022-10-11T01:32:24.510Z,11.00
2022-10-11T01:32:33.915Z,11.00
2022-10-11T01:32:43.458Z,11.00
2022-10-11T01:32:52.902Z,11.00
2022-10-11T01:33:02.323Z,10.90
2022-10-11T01:33:11.745Z,10.90
2022-10-11T01:33:21.160Z,10.90
2022-10-11T01:33:30.571Z,10.90
2022-10-11T01:33:39.979Z,10.90
2022-10-11T01:33:49.442Z,10.90
2022-10-11T01:33:58.860Z,10.90
2022-10-11T01:34:08.282Z,10.80
2022-10-11T01:34:17.696Z,10.90
2022-10-11T01:34:27.125Z,10.80
2022-10-11T01:34:36.537Z,10.80
2022-10-11T01:34:55.354Z,10.80
2022-10-11T01:35:05.293Z,10.80
2022-10-11T01:35:14.710Z,10.80
2022-10-11T01:35:24.122Z,10.80
2022-10-11T01:35:33.548Z,10.70
2022-10-11T01:35:43.075Z,10.70
2022-10-11T01:35:52.483Z,10.70
2022-10-11T01:36:02.305Z,10.70
2022-10-11T01:36:11.354Z,10.70
2022-10-11T01:36:20.777Z,10.70
2022-10-11T01:36:30.198Z,10.70
2022-10-11T01:36:39.604Z,10.70
2022-10-11T01:36:49.034Z,10.70
2022-10-11T01:36:58.482Z,10.60
2022-10-11T01:37:07.892Z,10.60
2022-10-11T01:37:17.304Z,10.60
2022-10-11T01:37:26.735Z,10.60
2022-10-11T01:37:36.196Z,10.60
2022-10-11T01:37:55.045Z,10.60
2022-10-11T01:38:04.451Z,10.60
2022-10-11T01:38:13.894Z,10.60
2022-10-11T01:38:23.336Z,10.50
2022-10-11T01:38:32.809Z,10.50
2022-10-11T01:38:42.212Z,10.50
2022-10-11T01:38:51.659Z,10.50
2022-10-11T01:39:01.106Z,10.50
2022-10-11T01:39:10.512Z,10.50
2022-10-11T01:39:19.991Z,10.50
2022-10-11T01:39:29.414Z,10.50
2022-10-11T01:39:38.933Z,10.50
2022-10-11T01:39:48.388Z,10.40
2022-10-11T01:39:57.828Z,10.40
2022-10-11T01:40:07.319Z,10.40
2022-10-11T01:40:16.745Z,10.40
2022-10-11T01:40:26.194Z,10.40
2022-10-11T01:40:45.122Z,10.40
2022-10-11T01:40:54.537Z,10.40
2022-10-11T01:41:03.992Z,10.40
2022-10-11T01:41:13.424Z,10.40
2022-10-11T01:41:22.857Z,10.40
2022-10-11T01:41:32.320Z,10.30
2022-10-11T01:41:41.752Z,10.30
2022-10-11T01:41:51.175Z,10.40
2022-10-11T01:42:00.591Z,10.30
2022-10-11T01:42:10.011Z,10.30
2022-10-11T01:42:19.445Z,10.30
2022-10-11T01:42:28.880Z,10.30
2022-10-11T01:42:38.310Z,10.30
2022-10-11T01:42:47.858Z,10.30
2022-10-11T01:42:57.267Z,10.30
2022-10-11T01:43:06.685Z,10.30
2022-10-11T01:43:16.094Z,10.30
2022-10-11T01:43:34.928Z,10.30
2022-10-11T01:43:44.417Z,10.30
2022-10-11T01:43:53.806Z,10.30
2022-10-11T01:44:03.230Z,10.30
2022-10-11T01:44:12.650Z,10.30
2022-10-11T01:44:22.193Z,10.30
2022-10-11T01:44:31.625Z,10.30
2022-10-11T01:44:41.027Z,10.20
2022-10-11T01:44:50.478Z,10.20
2022-10-11T01:44:59.896Z,10.20
2022-10-11T01:45:09.694Z,10.20
2022-10-11T01:45:19.114Z,10.20
2022-10-11T01:45:28.548Z,10.20
2022-10-11T01:45:38.054Z,10.20
2022-10-11T01:45:47.476Z,10.20
2022-10-11T01:45:56.902Z,10.20
2022-10-11T01:46:06.863Z,10.20
2022-10-11T01:46:25.200Z,10.20
2022-10-11T01:46:34.610Z,10.20
2022-10-11T01:46:44.031Z,10.20
2022-10-11T01:46:53.452Z,10.20
2022-10-11T01:47:02.883Z,10.20
2022-10-11T01:47:12.291Z,10.20
2022-10-11T01:47:21.729Z,10.20
2022-10-11T01:47:31.139Z,10.20
2022-10-11T01:47:40.544Z,10.20
2022-10-11T01:47:49.989Z,10.20
2022-10-11T01:47:59.396Z,10.20
2022-10-11T01:48:08.876Z,10.20
2022-10-11T01:48:18.239Z,10.20
2022-10-11T01:48:27.662Z,10.10
2022-10-11T01:48:37.118Z,10.10
2022-10-11T01:48:46.529Z,10.10
2022-10-11T01:49:05.391Z,10.10
2022-10-11T01:49:14.792Z,10.10
2022-10-11T01:49:24.257Z,10.10
2022-10-11T01:49:33.714Z,10.10
2022-10-11T01:49:43.123Z,10.10
2022-10-11T01:49:52.555Z,10.10
2022-10-11T01:50:02.023Z,10.10
2022-10-11T01:50:11.548Z,10.10
2022-10-11T01:50:20.948Z,10.10
2022-10-11T01:50:30.371Z,10.10
2022-10-11T01:50:39.793Z,10.10
2022-10-11T01:50:49.242Z,10.10
2022-10-11T01:50:58.672Z,10.10
2022-10-11T01:51:08.122Z,10.10
2022-10-11T01:51:17.548Z,10.10
2022-10-11T01:51:26.948Z,10.10
2022-10-11T01:51:36.398Z,10.10
2022-10-11T01:51:55.225Z,10.10
2022-10-11T01:52:04.664Z,10.10
2022-10-11T01:52:14.112Z,10.10
2022-10-11T01:52:23.541Z,10.10
2022-10-11T01:52:32.975Z,10.10
2022-10-11T01:52:42.442Z,10.10
2022-10-11T01:52:51.957Z,10.10
2022-10-11T01:53:01.378Z,10.10
2022-10-11T01:53:10.802Z,10.10
2022-10-11T01:53:20.236Z,10.10
2022-10-11T01:53:29.678Z,10.10
2022-10-11T01:53:39.105Z,10.10
2022-10-11T01:53:48.524Z,10.10
2022-10-11T01:53:58.002Z,10.10
2022-10-11T01:54:07.426Z,10.10
2022-10-11T01:54:16.859Z,10.10
2022-10-11T01:54:27.706Z,10.10
2022-10-11T01:55:08.085Z,10.10
2022-10-11T01:55:09.318Z,10.10
2022-10-11T01:55:09.688Z,10.10
2022-10-11T01:55:13.424Z,10.10
2022-10-11T01:55:22.824Z,10.10
2022-10-11T01:55:32.313Z,10.10
2022-10-11T01:55:41.734Z,9.90
2022-10-11T01:55:51.173Z,10.10
2022-10-11T01:56:00.669Z,10.10
2022-10-11T01:56:10.044Z,10.10
2022-10-11T01:56:19.511Z,10.10
2022-10-11T01:56:28.893Z,10.10
2022-10-11T01:56:38.376Z,10.10
2022-10-11T01:56:47.834Z,10.10
2022-10-11T01:56:57.247Z,10.10
2022-10-11T01:57:06.694Z,10.10
2022-10-11T01:57:16.110Z,10.10
2022-10-11T01:57:35.017Z,10.10
2022-10-11T01:57:44.422Z,10.10
2022-10-11T01:57:53.871Z,10.10
2022-10-11T01:58:03.319Z,10.10
2022-10-11T01:58:12.734Z,10.10
2022-10-11T01:58:22.216Z,10.10
2022-10-11T01:58:31.587Z,10.10
2022-10-11T01:58:40.974Z,10.10
2022-10-11T01:58:50.405Z,10.10
2022-10-11T01:58:59.782Z,10.10
2022-10-11T01:59:09.197Z,10.10
2022-10-11T01:59:18.661Z,10.10
2022-10-11T01:59:28.152Z,10.10
2022-10-11T01:59:37.588Z,10.10
2022-10-11T01:59:47.039Z,10.10
2022-10-11T01:59:56.474Z,10.10
2022-10-11T02:00:15.350Z,10.10
2022-10-11T02:00:24.778Z,10.10
2022-10-11T02:00:34.202Z,10.10
2022-10-11T02:00:43.618Z,10.10
2022-10-11T02:00:53.053Z,10.10
2022-10-11T02:01:02.537Z,10.10
2022-10-11T02:01:11.957Z,10.10
2022-10-11T02:01:21.448Z,10.10
2022-10-11T02:01:30.869Z,10.10
2022-10-11T02:01:40.291Z,10.10
2022-10-11T02:01:49.708Z,10.10
2022-10-11T02:01:59.027Z,10.10
2022-10-11T02:02:08.438Z,10.10
2022-10-11T02:02:17.860Z,10.10
2022-10-11T02:02:27.278Z,10.10
2022-10-11T02:02:36.808Z,10.10
2022-10-11T02:02:46.234Z,10.10
2022-10-11T02:03:05.133Z,10.10
2022-10-11T02:03:14.537Z,10.10
2022-10-11T02:03:23.931Z,10.10
2022-10-11T02:03:33.330Z,10.10
2022-10-11T02:03:42.775Z,10.10
2022-10-11T02:03:52.217Z,10.10
2022-10-11T02:04:01.718Z,10.10
2022-10-11T02:04:11.141Z,10.10
2022-10-11T02:04:20.590Z,10.10
2022-10-11T02:04:30.000Z,10.10
2022-10-11T02:04:39.418Z,10.10
2022-10-11T02:04:48.852Z,10.10
2022-10-11T02:04:58.284Z,10.10
2022-10-11T02:05:07.754Z,10.10
2022-10-11T02:05:17.220Z,10.10
2022-10-11T02:05:26.650Z,10.00
2022-10-11T02:05:36.146Z,10.00
2022-10-11T02:05:54.979Z,10.00
2022-10-11T02:06:04.828Z,10.00
2022-10-11T02:06:13.846Z,10.00
2022-10-11T02:06:23.269Z,10.00
2022-10-11T02:06:32.686Z,10.00
2022-10-11T02:06:42.091Z,10.00
2022-10-11T02:06:51.493Z,10.00
2022-10-11T02:07:00.916Z,10.00
2022-10-11T02:07:10.345Z,10.00
2022-10-11T02:07:19.768Z,10.00
2022-10-11T02:07:29.163Z,10.00
2022-10-11T02:07:38.588Z,10.00
2022-10-11T02:07:48.034Z,10.00
2022-10-11T02:07:57.463Z,10.00
2022-10-11T02:08:06.879Z,10.00
2022-10-11T02:08:16.284Z,10.00
2022-10-11T02:08:35.274Z,10.00
2022-10-11T02:08:44.693Z,10.00